Details for United Airlines at KIAD




Go Back


Latest METAR
Local Time

KIAD 241252Z 00000KT 1SM R01R/P6000FT BR OVC002 09/09 A3016 RMK AO2 SLP215 T00890089

24/02/2018, 08:52:30

Description
Results
United Airlines Logo
Number of Pilots based at KIAD
0 Pilots Based here
Number of United Airlines Flights Departed from KIAD
0 Flights Departed
Number of United Airlines Flights Arrived at KIAD
0 Flights Arrived
Number of United Airlines Schedules Departing from KIAD
384 Schedules
Number of United Airlines Schedules Arriving at KIAD
396 Schedules
Number of United Airlines Schedules Departing from KIAD availible today
219 Schedules Today
Number of United Airlines Schedules Arriving at KIAD availible today
226 Schedules Today
Average Landing Rate at KIAD
-232 fpm
United Airlines Average Landing Rate at KIAD
0 fpm
Total Fuel Purchased at KIAD by United Airlines
0.00 kgs / 0.00 lbs

Pilots Based at KIAD


Pilot ID
Pilot Name
Pilot Rank
No. of Flights
No. of Flying Hours
There are no pilots assigned to this hub!   Will you be the first?
Content